Time;durP1;ratioP1;P1;durP2;ratioP2;P2;SDS_P1;SDS_P2;PMS_P1;PMS_P2;Temp;Humidity;BMP_temperature;BMP_pressure;BME280_temperature;BME280_humidity;BME280_pressure;Samples;Min_cycle;Max_cycle;Signal;HPM_P1;HPM_P2
2021/01/03 00:01:45;;;;;;;109.85;45.20;;;0.40;99.90;;;;;;6184502;23;20019;-69
2021/01/03 00:04:11;;;;;;;96.13;41.50;;;0.30;99.90;;;;;;6182906;23;20422;-69
2021/01/03 00:06:36;;;;;;;104.95;45.15;;;0.30;99.90;;;;;;6184603;23;19997;-69
2021/01/03 00:09:03;;;;;;;89.80;40.17;;;0.30;99.90;;;;;;6184402;23;20032;-69
2021/01/03 00:11:29;;;;;;;93.03;39.00;;;0.20;99.90;;;;;;6184414;23;20001;-69
2021/01/03 00:13:55;;;;;;;94.10;39.47;;;0.30;99.90;;;;;;6184394;23;20009;-69
2021/01/03 00:16:20;;;;;;;102.10;43.35;;;0.30;99.90;;;;;;6158227;23;20013;-68
2021/01/03 00:18:46;;;;;;;99.18;41.70;;;0.30;99.90;;;;;;6159481;23;20005;-68
2021/01/03 00:21:12;;;;;;;106.10;45.70;;;0.20;99.90;;;;;;6159959;23;20097;-69
2021/01/03 00:23:38;;;;;;;113.13;48.08;;;0.20;99.90;;;;;;6135520;23;20001;-69
2021/01/03 00:26:04;;;;;;;125.97;49.92;;;0.20;99.90;;;;;;6186182;23;20005;-69
2021/01/03 00:28:30;;;;;;;109.43;45.85;;;0.20;99.90;;;;;;6159903;23;20009;-69
2021/01/03 00:30:56;;;;;;;109.00;48.33;;;0.20;99.90;;;;;;6186225;23;20448;-69
2021/01/03 00:33:22;;;;;;;91.35;43.67;;;0.20;99.90;;;;;;6186213;23;20051;-71
2021/01/03 00:35:48;;;;;;;89.85;38.10;;;0.20;99.90;;;;;;6159960;23;20013;-69
2021/01/03 00:38:14;;;;;;;84.88;37.75;;;0.20;99.90;;;;;;6159951;23;20005;-68
2021/01/03 00:40:41;;;;;;;90.80;40.78;;;0.30;99.90;;;;;;6186039;23;20005;-69
2021/01/03 00:43:07;;;;;;;93.45;40.17;;;0.30;99.90;;;;;;6186000;23;20001;-69
2021/01/03 00:45:34;;;;;;;93.28;39.88;;;0.20;99.90;;;;;;6185820;23;20009;-69
2021/01/03 00:48:00;;;;;;;88.70;39.30;;;0.10;99.90;;;;;;6186002;23;20005;-68
2021/01/03 00:50:26;;;;;;;102.75;42.38;;;0.00;99.90;;;;;;6159758;23;20044;-68
2021/01/03 00:52:52;;;;;;;98.25;39.40;;;0.00;99.90;;;;;;6186199;23;20001;-69
2021/01/03 00:55:21;;;;;;;106.13;42.70;;;0.00;99.90;;;;;;6184403;23;20016;-69
2021/01/03 00:57:47;;;;;;;103.22;43.13;;;-0.10;99.90;;;;;;6184467;23;20013;-69
2021/01/03 01:00:17;;;;;;;104.32;43.22;;;-0.20;99.90;;;;;;6134980;23;20462;-68
2021/01/03 01:02:43;;;;;;;103.20;44.28;;;-0.20;99.90;;;;;;6185827;23;20013;-69
2021/01/03 01:05:10;;;;;;;101.75;41.42;;;-0.30;99.90;;;;;;6185990;23;20113;-68
2021/01/03 01:07:36;;;;;;;104.85;43.85;;;-0.30;99.90;;;;;;6185961;23;20438;-69
2021/01/03 01:10:03;;;;;;;101.85;41.83;;;-0.30;99.90;;;;;;6159458;23;20031;-70
2021/01/03 01:12:29;;;;;;;93.10;39.25;;;-0.30;99.90;;;;;;6185962;23;20012;-70
2021/01/03 01:14:54;;;;;;;97.85;41.55;;;-0.30;99.90;;;;;;6185939;23;20005;-70
2021/01/03 01:17:20;;;;;;;100.32;41.00;;;-0.30;99.90;;;;;;6185672;23;20092;-70
2021/01/03 01:19:46;;;;;;;97.40;39.47;;;-0.30;99.90;;;;;;6159517;23;20006;-70
2021/01/03 01:22:12;;;;;;;95.10;39.20;;;-0.30;99.90;;;;;;6185842;23;20113;-70
2021/01/03 01:24:38;;;;;;;93.15;38.55;;;-0.30;99.90;;;;;;6185582;23;20008;-70
2021/01/03 01:27:04;;;;;;;93.13;40.08;;;-0.30;99.90;;;;;;6185741;23;20025;-70
2021/01/03 01:29:29;;;;;;;100.57;39.92;;;-0.40;99.90;;;;;;6185563;23;20175;-70
2021/01/03 01:31:55;;;;;;;97.55;39.80;;;-0.40;99.90;;;;;;6185383;23;20029;-70
2021/01/03 01:34:21;;;;;;;102.85;41.08;;;-0.40;99.90;;;;;;6184090;23;20036;-70
2021/01/03 01:36:47;;;;;;;94.82;39.90;;;-0.40;99.90;;;;;;6185571;23;20013;-70
2021/01/03 01:39:13;;;;;;;93.15;40.47;;;-0.50;99.90;;;;;;6185496;23;20007;-70
2021/01/03 01:41:39;;;;;;;94.55;39.50;;;-0.50;99.90;;;;;;6159192;23;20514;-70
2021/01/03 01:44:04;;;;;;;96.95;40.95;;;-0.40;99.90;;;;;;6159374;23;20382;-70
2021/01/03 01:46:35;;;;;;;93.03;41.55;;;-0.40;99.90;;;;;;6185184;23;20013;-70
2021/01/03 01:49:07;;;;;;;96.38;40.53;;;-0.40;99.90;;;;;;6159225;23;20013;-70
2021/01/03 01:51:41;;;;;;;94.93;38.95;;;-0.50;99.90;;;;;;6185458;23;20386;-70
2021/01/03 01:54:21;;;;;;;93.78;39.75;;;-0.50;99.90;;;;;;6185478;23;20060;-69
2021/01/03 01:57:02;;;;;;;95.68;40.10;;;-0.60;99.90;;;;;;6185251;23;20087;-70
2021/01/03 01:59:47;;;;;;;97.17;41.03;;;-0.60;99.90;;;;;;6159086;23;20402;-69
2021/01/03 02:02:16;;;;;;;103.05;42.35;;;-0.60;99.90;;;;;;6185353;23;20232;-69
2021/01/03 02:04:50;;;;;;;111.05;43.95;;;-0.60;99.90;;;;;;6183841;23;20047;-69
2021/01/03 02:07:33;;;;;;;106.22;41.10;;;-0.70;99.90;;;;;;6185174;23;20016;-69
2021/01/03 02:10:05;;;;;;;102.28;40.60;;;-0.80;99.90;;;;;;6185417;23;20001;-69
2021/01/03 02:12:37;;;;;;;102.47;42.35;;;-0.80;99.90;;;;;;6183664;23;20009;-69
2021/01/03 02:15:10;;;;;;;99.07;42.00;;;-0.80;99.90;;;;;;6158894;23;20009;-69
2021/01/03 02:17:37;;;;;;;97.60;41.58;;;-0.80;99.90;;;;;;6134145;23;20012;-69
2021/01/03 02:20:04;;;;;;;95.32;40.17;;;-0.80;99.90;;;;;;6158919;23;20454;-69
2021/01/03 02:22:37;;;;;;;89.47;40.50;;;-0.80;99.90;;;;;;6158903;23;20454;-69
2021/01/03 02:25:12;;;;;;;98.13;42.05;;;-0.70;99.90;;;;;;6185097;23;20450;-69
2021/01/03 02:27:54;;;;;;;94.85;38.42;;;-0.70;99.90;;;;;;6185187;23;20009;-69
2021/01/03 02:30:21;;;;;;;99.47;39.10;;;-0.70;99.90;;;;;;6185123;23;20335;-69
2021/01/03 02:32:49;;;;;;;93.43;39.58;;;-0.70;99.90;;;;;;6183636;23;20017;-69
2021/01/03 02:35:18;;;;;;;95.30;40.20;;;-0.60;99.90;;;;;;6158711;23;20035;-70
2021/01/03 02:37:48;;;;;;;89.28;38.22;;;-0.70;99.90;;;;;;6158863;23;20001;-69
2021/01/03 02:40:20;;;;;;;89.97;36.92;;;-0.70;99.90;;;;;;6183187;23;20029;-69
2021/01/03 02:42:46;;;;;;;95.53;40.78;;;-0.70;99.90;;;;;;6184874;23;20005;-69
2021/01/03 02:45:25;;;;;;;96.35;39.72;;;-0.80;99.90;;;;;;6158585;23;20012;-69
2021/01/03 02:47:52;;;;;;;96.43;39.85;;;-0.80;99.90;;;;;;6184923;23;20063;-69
2021/01/03 02:50:23;;;;;;;95.53;39.97;;;-0.80;99.90;;;;;;6183482;23;20009;-69
2021/01/03 02:52:49;;;;;;;91.18;38.42;;;-0.90;99.90;;;;;;6158373;23;20009;-69
2021/01/03 02:55:16;;;;;;;86.50;37.92;;;-0.90;99.90;;;;;;6184617;23;20028;-69
2021/01/03 02:57:43;;;;;;;87.47;37.28;;;-0.90;99.90;;;;;;6158720;23;20005;-69
2021/01/03 03:00:16;;;;;;;80.95;35.72;;;-0.90;99.90;;;;;;6183194;23;20005;-69
2021/01/03 03:02:41;;;;;;;85.78;37.63;;;-0.90;99.90;;;;;;6158482;23;20482;-69
2021/01/03 03:05:08;;;;;;;80.68;35.45;;;-1.00;99.90;;;;;;6184826;23;20001;-69
2021/01/03 03:07:34;;;;;;;83.13;35.50;;;-1.00;99.90;;;;;;6183123;23;20025;-69
2021/01/03 03:09:59;;;;;;;83.13;35.38;;;-1.00;99.90;;;;;;6183302;23;20371;-69
2021/01/03 03:12:25;;;;;;;80.18;35.03;;;-0.90;99.90;;;;;;6184814;23;20027;-69
2021/01/03 03:14:51;;;;;;;76.55;34.42;;;-0.90;99.90;;;;;;6158206;23;20056;-69
2021/01/03 03:17:17;;;;;;;81.95;35.40;;;-1.00;99.90;;;;;;6184746;23;20071;-69
2021/01/03 03:19:43;;;;;;;72.47;32.47;;;-0.90;99.90;;;;;;6156997;23;20048;-69
2021/01/03 03:22:08;;;;;;;78.55;32.45;;;-0.90;99.90;;;;;;6157874;23;20017;-69
2021/01/03 03:24:34;;;;;;;72.38;31.52;;;-0.90;99.90;;;;;;6184684;23;20036;-69
2021/01/03 03:27:02;;;;;;;70.90;32.58;;;-0.90;99.90;;;;;;6184733;23;20447;-69
2021/01/03 03:29:28;;;;;;;73.00;33.55;;;-0.90;99.90;;;;;;6184524;23;20012;-69
2021/01/03 03:31:55;;;;;;;73.50;33.05;;;-0.90;99.90;;;;;;6158318;23;20500;-69
2021/01/03 03:34:22;;;;;;;84.65;35.20;;;-0.90;99.90;;;;;;6183039;23;20378;-69
2021/01/03 03:36:52;;;;;;;74.53;34.35;;;-0.90;99.90;;;;;;6184399;23;20068;-69
2021/01/03 03:39:18;;;;;;;79.88;34.08;;;-0.90;99.90;;;;;;6158356;23;19997;-69
2021/01/03 03:41:44;;;;;;;70.32;32.38;;;-0.90;99.90;;;;;;6184557;23;20043;-69
2021/01/03 03:44:10;;;;;;;68.85;33.28;;;-0.90;99.90;;;;;;6158217;23;20008;-69
2021/01/03 03:46:37;;;;;;;77.53;34.42;;;-1.00;99.90;;;;;;6158292;23;20013;-68
2021/01/03 03:49:03;;;;;;;72.55;33.05;;;-1.00;99.90;;;;;;6133706;23;20004;-69
2021/01/03 03:51:29;;;;;;;71.05;33.72;;;-1.00;99.90;;;;;;6184814;23;20025;-69
2021/01/03 03:53:54;;;;;;;72.50;31.67;;;-0.90;99.90;;;;;;6160181;23;20521;-69
2021/01/03 03:56:20;;;;;;;67.10;31.38;;;-0.90;99.90;;;;;;6160086;23;20035;-69
2021/01/03 03:58:46;;;;;;;68.50;30.30;;;-0.90;99.90;;;;;;6186612;23;20012;-69
2021/01/03 04:01:12;;;;;;;65.40;30.17;;;-0.90;99.90;;;;;;6182398;23;20141;-69
2021/01/03 04:03:38;;;;;;;67.05;29.30;;;-0.90;99.90;;;;;;6159154;23;20001;-70
2021/01/03 04:06:05;;;;;;;64.15;28.23;;;-0.90;99.90;;;;;;6184590;23;20001;-69
2021/01/03 04:08:31;;;;;;;58.85;28.17;;;-0.90;99.90;;;;;;6186280;23;20011;-69
2021/01/03 04:10:58;;;;;;;65.95;29.45;;;-0.90;99.90;;;;;;6160159;23;20037;-70
2021/01/03 04:13:24;;;;;;;56.42;27.25;;;-0.80;99.90;;;;;;6186457;23;20465;-69
2021/01/03 04:15:50;;;;;;;63.17;27.75;;;-0.80;99.90;;;;;;6186305;23;20016;-69
2021/01/03 04:18:16;;;;;;;56.83;27.75;;;-0.80;99.90;;;;;;6160149;23;19998;-69
2021/01/03 04:20:42;;;;;;;56.30;27.52;;;-0.70;99.90;;;;;;6186390;23;20169;-69
2021/01/03 04:23:09;;;;;;;58.30;27.70;;;-0.70;99.90;;;;;;6186386;23;20024;-68
2021/01/03 04:25:36;;;;;;;55.70;25.20;;;-0.70;99.90;;;;;;6159875;23;20005;-69
2021/01/03 04:28:02;;;;;;;48.97;25.52;;;-0.70;99.90;;;;;;6159947;23;20028;-69
2021/01/03 04:30:28;;;;;;;46.85;25.70;;;-0.70;99.90;;;;;;6186313;23;20021;-69
2021/01/03 04:32:54;;;;;;;54.40;26.98;;;-0.70;99.90;;;;;;6186128;23;20009;-69
2021/01/03 04:35:22;;;;;;;52.88;23.90;;;-0.70;99.90;;;;;;6159921;23;20032;-69
2021/01/03 04:37:53;;;;;;;51.17;26.02;;;-0.60;99.90;;;;;;6159782;23;20525;-69
2021/01/03 04:40:29;;;;;;;53.83;25.50;;;-0.60;99.90;;;;;;6186123;23;20024;-69
2021/01/03 04:43:01;;;;;;;46.85;23.83;;;-0.60;99.90;;;;;;6160036;23;20001;-68
2021/01/03 04:45:30;;;;;;;;;;;-0.60;99.90;;;;;;6160185;23;20008;-69
2021/01/03 04:47:58;;;;;;;53.95;23.23;;;-0.60;99.90;;;;;;6159763;23;20325;-69
2021/01/03 04:50:50;;;;;;;46.58;24.08;;;-0.60;99.90;;;;;;6184563;23;20052;-69
2021/01/03 04:53:27;;;;;;;48.40;23.53;;;-0.60;99.90;;;;;;6105429;23;20017;-69
2021/01/03 04:56:06;;;;;;;42.97;22.73;;;-0.60;99.90;;;;;;6185786;23;20021;-69
2021/01/03 04:58:43;;;;;;;50.22;23.48;;;-0.50;99.90;;;;;;6184521;23;20320;-69
2021/01/03 05:01:43;;;;;;;43.00;22.23;;;-0.50;99.90;;;;;;6184421;23;20017;-69
2021/01/03 05:04:45;;;;;;;39.85;22.10;;;-0.50;99.90;;;;;;6185561;23;20063;-67
2021/01/03 05:07:28;;;;;;;44.65;23.67;;;-0.50;99.90;;;;;;6159556;23;20001;-69
2021/01/03 05:10:20;;;;;;;52.53;24.20;;;-0.40;99.90;;;;;;6184424;23;20013;-69
2021/01/03 05:13:09;;;;;;;53.90;27.35;;;-0.40;99.90;;;;;;6159642;23;20052;-69
2021/01/03 05:15:35;;;;;;;53.58;26.17;;;-0.40;99.90;;;;;;6159453;23;20013;-69
2021/01/03 05:18:04;;;;;;;56.30;27.30;;;-0.30;99.90;;;;;;6159678;23;20072;-68
2021/01/03 05:20:29;;;;;;;48.75;26.95;;;-0.30;99.90;;;;;;6185896;23;20103;-69
2021/01/03 05:23:16;;;;;;;48.92;26.00;;;-0.40;99.90;;;;;;6159401;23;20001;-69
2021/01/03 05:25:44;;;;;;;50.90;27.13;;;-0.40;99.90;;;;;;6185912;23;20063;-69
2021/01/03 05:28:23;;;;;;;50.38;24.58;;;-0.40;99.90;;;;;;6185786;23;20001;-69
2021/01/03 05:30:49;;;;;;;45.42;23.38;;;-0.40;99.90;;;;;;6159406;23;20005;-69
2021/01/03 05:33:25;;;;;;;43.75;24.10;;;-0.30;99.90;;;;;;6185657;23;20008;-69
2021/01/03 05:35:52;;;;;;;48.25;24.40;;;-0.30;99.90;;;;;;6159146;23;20013;-69
2021/01/03 05:38:41;;;;;;;43.20;23.13;;;-0.30;99.90;;;;;;6159462;23;20009;-69
2021/01/03 05:41:20;;;;;;;43.58;23.70;;;-0.20;99.90;;;;;;6185790;23;20364;-69
2021/01/03 05:43:55;;;;;;;46.60;24.38;;;-0.20;99.90;;;;;;6185318;23;20033;-69
2021/01/03 05:46:32;;;;;;;41.88;22.83;;;-0.20;99.90;;;;;;6185454;23;20021;-69
2021/01/03 05:49:03;;;;;;;47.67;25.17;;;-0.10;99.90;;;;;;6159080;23;20009;-69
2021/01/03 05:51:49;;;;;;;43.33;23.52;;;-0.10;99.90;;;;;;6185601;23;20047;-69
2021/01/03 05:54:34;;;;;;;44.22;23.48;;;-0.10;99.90;;;;;;6185467;23;20489;-69
2021/01/03 05:57:17;;;;;;;45.63;22.88;;;-0.10;99.90;;;;;;6159159;23;20139;-69
2021/01/03 05:59:45;;;;;;;43.25;21.90;;;-0.10;99.90;;;;;;6185713;23;20008;-69
2021/01/03 06:02:28;;;;;;;37.13;21.33;;;-0.10;99.90;;;;;;6184000;23;20016;-69
2021/01/03 06:05:23;;;;;;;39.42;20.85;;;-0.10;99.90;;;;;;6185436;23;20001;-69
2021/01/03 06:08:12;;;;;;;36.90;19.30;;;0.00;99.90;;;;;;6181300;23;20397;-69
2021/01/03 06:10:39;;;;;;;31.95;19.23;;;0.00;99.90;;;;;;6185406;23;20009;-69
2021/01/03 06:13:08;;;;;;;35.58;19.35;;;0.00;99.90;;;;;;6158972;23;20001;-69
2021/01/03 06:15:39;;;;;;;33.72;18.83;;;0.10;99.90;;;;;;6158507;23;20013;-69
2021/01/03 06:18:13;;;;;;;34.75;18.88;;;0.10;99.90;;;;;;6185150;23;20007;-68
2021/01/03 06:20:39;;;;;;;30.10;18.48;;;0.20;99.90;;;;;;6185352;23;20155;-69
2021/01/03 06:23:17;;;;;;;35.83;19.35;;;0.20;99.90;;;;;;6159015;23;20264;-69
2021/01/03 06:25:51;;;;;;;30.30;17.95;;;0.20;99.90;;;;;;6183765;23;20341;-68
2021/01/03 06:28:23;;;;;;;36.42;19.15;;;0.30;99.90;;;;;;6185180;23;20155;-69
2021/01/03 06:31:32;;;;;;;34.05;18.25;;;0.20;99.90;;;;;;6183469;23;20458;-69
2021/01/03 06:34:14;;;;;;;28.00;17.38;;;0.30;99.90;;;;;;6118932;23;20009;-69
2021/01/03 06:36:54;;;;;;;35.00;19.05;;;0.20;99.90;;;;;;6185016;23;20044;-69
2021/01/03 06:39:27;;;;;;;33.53;19.38;;;0.30;99.90;;;;;;6158677;23;20056;-69
2021/01/03 06:41:58;;;;;;;40.10;18.90;;;0.30;99.90;;;;;;6183747;23;20009;-69
2021/01/03 06:44:45;;;;;;;36.58;17.48;;;0.30;99.90;;;;;;6185113;23;20028;-69
2021/01/03 06:47:50;;;;;;;37.03;19.73;;;0.30;99.90;;;;;;6184746;23;20095;-69
2021/01/03 06:50:37;;;;;;;36.45;19.55;;;0.40;99.90;;;;;;6183479;23;20005;-68
2021/01/03 06:53:25;;;;;;;38.03;20.30;;;0.40;99.90;;;;;;6184957;23;20119;-69
2021/01/03 06:56:28;;;;;;;33.65;19.27;;;0.40;99.90;;;;;;6158667;23;20092;-69
2021/01/03 06:59:22;;;;;;;33.28;19.58;;;0.40;99.90;;;;;;6168981;23;20342;-69
2021/01/03 07:01:49;;;;;;;37.42;19.55;;;0.40;99.90;;;;;;6184875;23;20386;-69
2021/01/03 07:04:41;;;;;;;36.75;20.15;;;0.40;99.90;;;;;;6183362;23;20100;-69
2021/01/03 07:07:24;;;;;;;36.42;19.98;;;0.40;99.90;;;;;;6153356;23;20009;-67
2021/01/03 07:10:12;;;;;;;38.17;20.90;;;0.40;99.90;;;;;;6156213;23;20017;-65
2021/01/03 07:12:49;;;;;;;35.47;18.90;;;0.40;99.90;;;;;;6156939;23;20008;-66
2021/01/03 07:15:35;;;;;;;32.88;17.65;;;0.40;99.90;;;;;;6156933;23;20012;-66
2021/01/03 07:18:26;;;;;;;33.13;19.48;;;0.50;99.90;;;;;;6183104;23;20012;-68
2021/01/03 07:20:55;;;;;;;34.17;18.52;;;0.60;99.90;;;;;;6183346;23;20008;-67
2021/01/03 07:23:33;;;;;;;31.08;18.02;;;0.60;99.90;;;;;;6183188;23;20008;-70
2021/01/03 07:26:14;;;;;;;36.17;21.05;;;0.70;99.90;;;;;;6182986;23;20001;-69
2021/01/03 07:28:48;;;;;;;37.55;20.60;;;0.80;99.90;;;;;;6181520;23;20328;-70
2021/01/03 07:31:40;;;;;;;43.05;21.02;;;0.90;99.90;;;;;;6157064;23;20075;-69
2021/01/03 07:34:23;;;;;;;46.75;21.85;;;1.00;99.90;;;;;;6183039;23;20059;-69
2021/01/03 07:36:56;;;;;;;42.45;22.45;;;1.10;99.90;;;;;;6156396;23;20471;-70
2021/01/03 07:39:23;;;;;;;44.47;22.27;;;1.20;99.90;;;;;;6181548;23;20008;-72
2021/01/03 07:42:12;;;;;;;42.10;22.85;;;1.20;99.90;;;;;;6182791;23;20084;-69
2021/01/03 07:44:38;;;;;;;48.88;23.63;;;1.30;99.90;;;;;;6183177;23;20005;-71
2021/01/03 07:47:05;;;;;;;49.97;24.52;;;1.40;99.90;;;;;;6182689;23;20176;-71
2021/01/03 07:49:41;;;;;;;53.35;24.55;;;1.40;99.90;;;;;;6181465;23;20017;-71
2021/01/03 07:52:19;;;;;;;53.15;24.90;;;1.50;99.90;;;;;;6183095;23;20029;-70
2021/01/03 07:54:48;;;;;;;46.45;24.27;;;1.70;99.90;;;;;;6157028;23;20457;-69
2021/01/03 07:57:14;;;;;;;51.28;24.23;;;1.90;99.90;;;;;;6182872;23;20013;-67
2021/01/03 07:59:40;;;;;;;48.47;25.67;;;2.40;99.90;;;;;;6182940;23;20427;-69
2021/01/03 08:02:07;;;;;;;43.35;23.17;;;3.10;99.90;;;;;;6131775;23;20005;-68
2021/01/03 08:04:33;;;;;;;45.80;24.50;;;4.00;99.90;;;;;;6156557;23;20096;-70
2021/01/03 08:07:08;;;;;;;43.53;22.38;;;4.90;99.90;;;;;;6156357;23;20009;-73
2021/01/03 08:09:34;;;;;;;46.05;23.08;;;6.00;99.90;;;;;;6182890;23;20056;-68
2021/01/03 08:12:15;;;;;;;39.15;20.27;;;7.30;99.90;;;;;;6182945;23;20076;-70
2021/01/03 08:14:45;;;;;;;43.00;22.52;;;8.70;96.80;;;;;;6154802;23;20028;-72
2021/01/03 08:17:22;;;;;;;37.15;21.95;;;10.10;90.90;;;;;;6181258;23;20443;-74
2021/01/03 08:19:50;;;;;;;35.72;20.25;;;11.30;83.40;;;;;;6182970;23;20037;-72
2021/01/03 08:22:27;;;;;;;36.00;21.52;;;11.70;77.40;;;;;;6181563;23;20084;-74
2021/01/03 08:24:55;;;;;;;36.95;20.75;;;12.00;76.00;;;;;;6181229;23;20443;-73
2021/01/03 08:27:43;;;;;;;30.35;20.15;;;12.10;74.10;;;;;;6182986;23;20036;-77
2021/01/03 08:30:24;;;;;;;30.48;20.27;;;11.80;72.60;;;;;;6181300;23;20013;-76
2021/01/03 08:32:51;;;;;;;29.23;20.40;;;11.20;73.90;;;;;;6182805;23;20376;-71
2021/01/03 08:35:30;;;;;;;32.83;19.70;;;10.50;74.40;;;;;;6182827;23;20005;-72
2021/01/03 08:37:57;;;;;;;27.70;18.48;;;9.60;75.70;;;;;;6156263;23;20059;-73
2021/01/03 08:40:28;;;;;;;32.78;20.25;;;9.10;77.20;;;;;;6157893;23;20016;-72
2021/01/03 08:43:23;;;;;;;32.50;20.45;;;8.70;78.10;;;;;;6183363;23;20013;-72
2021/01/03 08:45:50;;;;;;;31.48;19.67;;;8.40;80.80;;;;;;6154274;23;20095;-73
2021/01/03 08:48:24;;;;;;;32.75;20.90;;;8.50;79.00;;;;;;6184540;23;20052;-66
2021/01/03 08:51:08;;;;;;;31.92;19.73;;;8.70;81.00;;;;;;6184501;23;20094;-66
2021/01/03 08:53:35;;;;;;;36.65;20.90;;;9.10;79.80;;;;;;6158143;23;20012;-67
2021/01/03 08:56:08;;;;;;;39.00;21.08;;;10.20;77.20;;;;;;6182384;23;20324;-67
2021/01/03 08:58:41;;;;;;;33.90;19.52;;;12.00;71.00;;;;;;6184449;23;20051;-68
2021/01/03 09:01:20;;;;;;;31.13;19.63;;;14.60;63.80;;;;;;6184591;23;20008;-71
2021/01/03 09:03:50;;;;;;;31.27;19.00;;;17.30;54.60;;;;;;6184865;23;20009;-71
2021/01/03 09:06:16;;;;;;;28.45;18.65;;;19.30;50.60;;;;;;6184449;23;20004;-69
2021/01/03 09:08:44;;;;;;;32.33;20.25;;;21.30;45.80;;;;;;6184293;23;20005;-64
2021/01/03 09:11:32;;;;;;;33.47;22.40;;;22.60;43.00;;;;;;6184498;23;20028;-64
2021/01/03 09:14:12;;;;;;;33.83;20.48;;;23.60;39.80;;;;;;6184286;23;20443;-64
2021/01/03 09:17:01;;;;;;;28.45;20.45;;;24.30;38.70;;;;;;6184050;23;20020;-62
2021/01/03 09:19:57;;;;;;;28.90;19.20;;;24.40;37.70;;;;;;6157773;23;20518;-63
2021/01/03 09:22:28;;;;;;;28.80;19.77;;;23.00;38.20;;;;;;6184265;23;20016;-64
2021/01/03 09:25:00;;;;;;;27.45;19.63;;;22.80;38.20;;;;;;6182688;23;20013;-64
2021/01/03 09:27:30;;;;;;;25.20;18.77;;;21.50;38.70;;;;;;6184156;23;20015;-62
2021/01/03 09:30:35;;;;;;;26.98;19.85;;;21.10;40.70;;;;;;6184141;23;20084;-64
2021/01/03 09:33:26;;;;;;;32.13;21.08;;;20.90;41.10;;;;;;6166993;23;20410;-64
2021/01/03 09:36:10;;;;;;;25.92;19.88;;;21.80;40.90;;;;;;6184117;23;20013;-65
2021/01/03 09:38:39;;;;;;;28.45;19.30;;;21.10;40.70;;;;;;6184237;23;20028;-65
2021/01/03 09:41:23;;;;;;;25.77;20.13;;;20.40;42.20;;;;;;6183978;23;20005;-65
2021/01/03 09:44:27;;;;;;;27.42;19.90;;;19.20;43.20;;;;;;6183756;23;20036;-66
2021/01/03 09:46:55;;;;;;;26.25;20.42;;;17.70;46.00;;;;;;6183690;23;20474;-61
2021/01/03 09:49:37;;;;;;;31.40;20.45;;;16.40;48.50;;;;;;6183762;23;20005;-61
2021/01/03 09:52:19;;;;;;;32.33;22.05;;;15.00;50.50;;;;;;6183905;23;20431;-61
2021/01/03 09:54:45;;;;;;;;;;;13.50;53.80;;;;;;6184685;23;20017;-61
2021/01/03 09:57:39;;;;;;;36.42;21.65;;;12.00;56.90;;;;;;6183707;23;19982;-62
2021/01/03 10:00:11;;;;;;;39.10;23.20;;;11.10;60.10;;;;;;6184013;23;20011;-66
2021/01/03 10:02:38;;;;;;;40.55;25.05;;;10.70;61.70;;;;;;6184238;23;20016;-73
2021/01/03 10:05:18;;;;;;;36.38;23.05;;;10.40;62.50;;;;;;6182518;23;20009;-69
2021/01/03 10:07:44;;;;;;;36.42;24.05;;;9.70;64.50;;;;;;6183807;23;20013;-72
2021/01/03 10:10:10;;;;;;;37.08;24.38;;;9.30;66.30;;;;;;6184036;23;20382;-70
2021/01/03 10:12:40;;;;;;;43.30;26.52;;;9.10;67.20;;;;;;6182062;23;20013;-70
2021/01/03 10:15:06;;;;;;;45.00;25.90;;;9.00;68.30;;;;;;6157302;23;20005;-69
2021/01/03 10:17:31;;;;;;;42.38;25.85;;;9.00;68.60;;;;;;6182018;23;20092;-72
2021/01/03 10:19:58;;;;;;;40.63;24.70;;;9.20;68.00;;;;;;6183691;23;20005;-74
2021/01/03 10:22:28;;;;;;;42.83;25.15;;;9.10;68.60;;;;;;6183569;23;20047;-71
2021/01/03 10:24:55;;;;;;;45.30;26.13;;;8.70;70.00;;;;;;6183602;23;20005;-71
2021/01/03 10:27:21;;;;;;;42.80;25.45;;;8.20;71.40;;;;;;6182305;23;20032;-72
2021/01/03 10:29:47;;;;;;;45.17;27.20;;;7.60;73.70;;;;;;6185056;23;20455;-69
2021/01/03 10:32:13;;;;;;;46.17;26.55;;;7.10;76.20;;;;;;6158837;23;20023;-71
2021/01/03 10:34:39;;;;;;;50.53;28.40;;;6.50;79.30;;;;;;6185022;23;20443;-72
2021/01/03 10:37:05;;;;;;;43.97;27.70;;;6.10;82.60;;;;;;6184858;23;20009;-72
2021/01/03 10:39:31;;;;;;;52.13;27.60;;;5.90;85.80;;;;;;6185097;23;20011;-72
2021/01/03 10:42:00;;;;;;;48.75;26.25;;;5.40;90.60;;;;;;6158764;23;20095;-72
2021/01/03 10:44:26;;;;;;;50.67;27.73;;;5.30;92.50;;;;;;6184901;23;20001;-72
2021/01/03 10:46:54;;;;;;;53.08;28.27;;;4.90;95.20;;;;;;6184826;23;20048;-72
2021/01/03 10:49:20;;;;;;;51.10;27.85;;;4.70;97.80;;;;;;6185121;23;20001;-72
2021/01/03 10:51:47;;;;;;;47.67;27.38;;;4.60;99.60;;;;;;6184747;23;20017;-72
2021/01/03 10:54:17;;;;;;;50.40;27.92;;;4.70;99.90;;;;;;6184943;23;20001;-72
2021/01/03 10:56:51;;;;;;;49.08;27.75;;;5.00;99.90;;;;;;6184617;23;20128;-72
2021/01/03 10:59:18;;;;;;;51.78;28.23;;;4.90;99.90;;;;;;6184996;23;20001;-72
2021/01/03 11:01:45;;;;;;;56.33;30.63;;;5.00;99.90;;;;;;6184489;23;20509;-73
2021/01/03 11:04:11;;;;;;;50.53;28.08;;;5.10;99.90;;;;;;6184642;23;20009;-72
2021/01/03 11:06:42;;;;;;;49.75;28.60;;;5.30;99.90;;;;;;6184858;23;20001;-72
2021/01/03 11:09:14;;;;;;;49.28;27.08;;;5.80;99.60;;;;;;6184663;23;20458;-73
2021/01/03 11:11:40;;;;;;;52.53;27.95;;;6.00;98.10;;;;;;6184775;23;20009;-72
2021/01/03 11:14:06;;;;;;;49.38;28.83;;;6.20;97.00;;;;;;6184559;23;20001;-71
2021/01/03 11:16:37;;;;;;;51.47;28.80;;;6.20;95.50;;;;;;6184493;23;20355;-73
2021/01/03 11:19:04;;;;;;;53.28;29.25;;;6.20;96.00;;;;;;6184453;23;20005;-73
2021/01/03 11:21:30;;;;;;;51.22;28.50;;;5.80;96.50;;;;;;6184705;23;20001;-75
2021/01/03 11:23:56;;;;;;;54.97;29.10;;;5.70;97.20;;;;;;6184576;23;20478;-75
2021/01/03 11:26:27;;;;;;;52.90;29.27;;;5.50;97.60;;;;;;6183297;23;20029;-76
2021/01/03 11:28:53;;;;;;;63.60;30.40;;;5.30;98.00;;;;;;6184794;23;20036;-76
2021/01/03 11:31:19;;;;;;;57.65;29.50;;;5.00;98.80;;;;;;6184662;23;20009;-76
2021/01/03 11:33:45;;;;;;;61.70;31.85;;;4.50;99.90;;;;;;6184748;23;20051;-76
2021/01/03 11:36:11;;;;;;;59.30;31.65;;;4.00;99.90;;;;;;6184520;23;20001;-75
2021/01/03 11:38:37;;;;;;;59.35;31.60;;;3.70;99.90;;;;;;6184575;23;20013;-76
2021/01/03 11:41:03;;;;;;;58.67;33.33;;;3.70;99.90;;;;;;6184655;23;20430;-76
2021/01/03 11:43:29;;;;;;;61.83;33.17;;;3.70;99.90;;;;;;6184498;23;20012;-75
2021/01/03 11:45:54;;;;;;;60.67;31.08;;;3.60;99.90;;;;;;6184343;23;20020;-75
2021/01/03 11:48:22;;;;;;;58.22;30.88;;;3.50;99.90;;;;;;6184476;23;20466;-75
2021/01/03 11:50:48;;;;;;;57.67;30.95;;;3.50;99.90;;;;;;6158189;23;20039;-74
2021/01/03 11:53:13;;;;;;;57.42;30.58;;;3.70;99.90;;;;;;6184427;23;20439;-74
2021/01/03 11:55:39;;;;;;;58.50;31.30;;;3.70;99.90;;;;;;6158252;23;20383;-72
2021/01/03 11:58:05;;;;;;;61.28;34.70;;;3.60;99.90;;;;;;6157293;23;20012;-71
2021/01/03 12:00:32;;;;;;;66.32;36.28;;;3.20;99.90;;;;;;6183176;23;20005;-71
2021/01/03 12:02:58;;;;;;;64.55;37.60;;;3.00;99.90;;;;;;6183238;23;20056;-71
2021/01/03 12:05:24;;;;;;;63.15;35.38;;;3.20;99.90;;;;;;6156728;23;20431;-70
2021/01/03 12:07:50;;;;;;;67.70;35.05;;;3.40;99.90;;;;;;6156315;23;20387;-70
2021/01/03 12:10:16;;;;;;;64.70;33.83;;;3.50;99.90;;;;;;6156277;23;20009;-68
2021/01/03 12:12:41;;;;;;;65.82;33.38;;;3.60;99.90;;;;;;6157061;23;20021;-73
2021/01/03 12:15:08;;;;;;;60.03;32.45;;;3.40;99.90;;;;;;6184906;23;20449;-73
2021/01/03 12:17:34;;;;;;;62.70;32.15;;;3.20;99.90;;;;;;6158524;23;20370;-72
2021/01/03 12:20:00;;;;;;;62.60;32.72;;;3.20;99.90;;;;;;6183307;23;20005;-68
2021/01/03 12:22:25;;;;;;;62.20;32.80;;;3.40;99.90;;;;;;6158539;23;20016;-67
2021/01/03 12:24:51;;;;;;;64.93;34.22;;;3.70;99.90;;;;;;6158595;23;20005;-66
2021/01/03 12:27:19;;;;;;;65.30;33.65;;;3.60;99.90;;;;;;6184825;23;20060;-68
2021/01/03 12:29:45;;;;;;;66.38;33.50;;;3.30;99.90;;;;;;6185054;23;20075;-68
2021/01/03 12:32:12;;;;;;;76.70;40.67;;;3.00;99.90;;;;;;6156592;23;20439;-66
2021/01/03 12:34:38;;;;;;;69.78;36.67;;;2.60;99.90;;;;;;6184777;23;20481;-69
2021/01/03 12:37:17;;;;;;;70.28;35.33;;;2.40;99.90;;;;;;6158201;23;20017;-68
2021/01/03 12:39:44;;;;;;;69.13;33.88;;;2.20;99.90;;;;;;6184662;23;20012;-67
2021/01/03 12:42:13;;;;;;;62.50;33.50;;;2.20;99.90;;;;;;6184472;23;20001;-67
2021/01/03 12:44:39;;;;;;;64.75;32.65;;;2.10;99.90;;;;;;6183097;23;20088;-67
2021/01/03 12:47:05;;;;;;;69.03;31.63;;;2.00;99.90;;;;;;6183935;23;20118;-71
2021/01/03 12:49:32;;;;;;;62.33;32.00;;;1.70;99.90;;;;;;6155920;23;20012;-78
2021/01/03 12:51:58;;;;;;;71.22;35.42;;;1.60;99.90;;;;;;6182298;23;20028;-74
2021/01/03 12:54:24;;;;;;;71.05;33.00;;;1.50;99.90;;;;;;6182329;23;20013;-80